Time,TemperatureF,DewpointF,PressureIn,WindDirection,WindDirectionDegrees,WindSpeedMPH,WindSpeedGustMPH,Humidity,HourlyPrecipIn,Conditions,Clouds,dailyrainin,SoftwareType,DateUTC
2013-06-15 00:00:00,55.1,54.0,29.86,ENE,62,0.0,0.0,96,0.01,RA,,0.00,WeatherDisplay:10.37,2013-06-15 04:00:00,
2013-06-15 00:01:00,55.1,54.0,29.86,ENE,62,0.0,0.0,96,0.01,RA,,0.00,WeatherDisplay:10.37,2013-06-15 04:01:00,
2013-06-15 00:04:00,55.1,54.0,29.86,ENE,62,0.0,0.0,96,0.01,RA,,0.00,WeatherDisplay:10.37,2013-06-15 04:04:00,
2013-06-15 00:10:00,55.0,53.9,29.86,ENE,62,0.0,0.0,96,0.01,CLR,,0.00,WeatherDisplay:10.37,2013-06-15 04:10:00,
2013-06-15 00:15:00,55.0,53.9,29.86,ENE,62,0.0,0.0,96,0.01,CLR,,0.00,WeatherDisplay:10.37,2013-06-15 04:15:00,
2013-06-15 00:20:00,55.1,54.0,29.86,ENE,61,0.0,0.0,96,0.01,CLR,,0.00,WeatherDisplay:10.37,2013-06-15 04:20:00,
2013-06-15 00:25:00,55.0,53.9,29.86,ENE,68,0.1,1.2,96,0.01,CLR,,0.00,WeatherDisplay:10.37,2013-06-15 04:25:00,
2013-06-15 00:30:00,54.8,53.7,29.86,ENE,64,0.0,0.0,96,0.01,CLR,,0.00,WeatherDisplay:10.37,2013-06-15 04:30:00,
2013-06-15 00:35:00,54.8,53.7,29.86,ENE,64,0.0,0.0,96,0.01,CLR,,0.00,WeatherDisplay:10.37,2013-06-15 04:35:00,
2013-06-15 00:40:00,54.8,53.7,29.86,ENE,64,0.0,0.0,96,0.01,CLR,,0.00,WeatherDisplay:10.37,2013-06-15 04:40:00,
2013-06-15 00:45:00,55.0,53.9,29.86,ENE,64,0.0,0.0,96,0.01,CLR,,0.00,WeatherDisplay:10.37,2013-06-15 04:45:00,
2013-06-15 00:50:00,54.4,53.3,29.86,ENE,64,0.0,0.0,96,0.01,CLR,,0.00,WeatherDisplay:10.37,2013-06-15 04:50:00,
2013-06-15 00:55:00,54.4,53.3,29.86,ENE,64,0.0,0.0,96,0.00,CLR,,0.00,WeatherDisplay:10.37,2013-06-15 04:55:00,
2013-06-15 01:00:00,54.4,53.3,29.86,ENE,64,0.0,0.0,96,0.00,CLR,,0.00,WeatherDisplay:10.37,2013-06-15 05:00:00,
2013-06-15 01:05:00,54.8,53.7,29.86,ENE,66,0.0,0.0,96,0.00,CLR,,0.00,WeatherDisplay:10.37,2013-06-15 05:05:00,
2013-06-15 01:10:00,54.8,53.7,29.86,ENE,66,0.0,0.0,96,0.00,CLR,,0.00,WeatherDisplay:10.37,2013-06-15 05:10:00,
2013-06-15 01:15:00,54.7,53.6,29.86,ENE,66,0.0,0.0,96,0.00,CLR,,0.00,WeatherDisplay:10.37,2013-06-15 05:15:00,
2013-06-15 01:21:00,54.5,53.4,29.86,ENE,66,0.0,0.0,96,0.00,CLR,,0.00,WeatherDisplay:10.37,2013-06-15 05:21:00,
2013-06-15 01:26:00,54.4,53.3,29.86,ENE,66,0.0,0.0,96,0.00,CLR,,0.00,WeatherDisplay:10.37,2013-06-15 05:26:00,
2013-06-15 01:31:00,54.7,53.6,29.86,ENE,66,0.0,0.0,96,0.00,CLR,,0.00,WeatherDisplay:10.37,2013-06-15 05:31:00,
2013-06-15 01:36:00,54.7,53.6,29.86,ENE,66,0.0,0.0,96,0.00,CLR,,0.00,WeatherDisplay:10.37,2013-06-15 05:36:00,
2013-06-15 01:41:00,54.7,53.6,29.86,ENE,66,0.0,0.0,96,0.00,CLR,,0.00,WeatherDisplay:10.37,2013-06-15 05:41:00,
2013-06-15 01:46:00,54.4,53.3,29.87,ENE,66,0.0,0.0,96,0.00,CLR,,0.00,WeatherDisplay:10.37,2013-06-15 05:46:00,
2013-06-15 01:51:00,54.1,53.0,29.87,ENE,64,0.0,0.0,96,0.00,CLR,,0.00,WeatherDisplay:10.37,2013-06-15 05:51:00,
2013-06-15 01:56:00,53.8,52.7,29.87,ENE,64,0.0,0.0,96,0.00,CLR,,0.00,WeatherDisplay:10.37,2013-06-15 05:56:00,
2013-06-15 02:01:00,53.5,52.4,29.87,ENE,64,0.0,0.0,96,0.00,CLR,,0.00,WeatherDisplay:10.37,2013-06-15 06:01:00,
2013-06-15 02:06:00,52.9,51.8,29.87,ENE,64,0.0,0.0,96,0.00,CLR,,0.00,WeatherDisplay:10.37,2013-06-15 06:06:00,
2013-06-15 02:12:00,52.5,51.4,29.87,ENE,64,0.0,0.0,96,0.00,CLR,,0.00,WeatherDisplay:10.37,2013-06-15 06:12:00,
2013-06-15 02:17:00,52.8,51.7,29.88,ENE,64,0.0,0.0,96,0.00,CLR,,0.00,WeatherDisplay:10.37,2013-06-15 06:17:00,
2013-06-15 02:22:00,53.2,52.1,29.88,ENE,64,0.0,0.0,96,0.00,CLR,,0.00,WeatherDisplay:10.37,2013-06-15 06:22:00,
2013-06-15 02:27:00,53.6,52.5,29.88,ENE,64,0.0,0.0,96,0.00,CLR,,0.00,WeatherDisplay:10.37,2013-06-15 06:27:00,
2013-06-15 02:32:00,54.1,53.3,29.88,ENE,64,0.0,0.0,97,0.00,CLR,,0.00,WeatherDisplay:10.37,2013-06-15 06:32:00,
2013-06-15 02:37:00,54.2,53.4,29.88,ENE,64,0.0,0.0,97,0.00,CLR,,0.00,WeatherDisplay:10.37,2013-06-15 06:37:00,
2013-06-15 02:42:00,53.9,52.8,29.88,ENE,64,0.0,0.0,96,0.00,CLR,,0.00,WeatherDisplay:10.37,2013-06-15 06:42:00,
2013-06-15 02:47:00,53.8,52.7,29.88,ENE,64,0.0,0.0,96,0.00,CLR,,0.00,WeatherDisplay:10.37,2013-06-15 06:47:00,
2013-06-15 02:52:00,53.8,52.7,29.88,ENE,64,0.0,0.0,96,0.00,CLR,,0.00,WeatherDisplay:10.37,2013-06-15 06:52:00,
2013-06-15 02:57:00,53.2,52.1,29.88,ENE,64,0.0,0.0,96,0.00,CLR,,0.00,WeatherDisplay:10.37,2013-06-15 06:57:00,
2013-06-15 03:03:00,52.8,51.7,29.89,ENE,64,0.0,0.0,96,0.00,CLR,,0.00,WeatherDisplay:10.37,2013-06-15 07:03:00,
2013-06-15 03:08:00,52.8,51.7,29.89,ENE,64,0.0,0.0,96,0.00,CLR,,0.00,WeatherDisplay:10.37,2013-06-15 07:08:00,
2013-06-15 03:13:00,52.5,51.4,29.89,ENE,64,0.0,0.0,96,0.00,CLR,,0.00,WeatherDisplay:10.37,2013-06-15 07:13:00,
2013-06-15 03:18:00,52.2,51.1,29.89,ENE,64,0.0,0.0,96,0.00,CLR,,0.00,WeatherDisplay:10.37,2013-06-15 07:18:00,
2013-06-15 03:23:00,52.2,51.1,29.89,ENE,64,0.0,0.0,96,0.00,CLR,,0.00,WeatherDisplay:10.37,2013-06-15 07:23:00,
2013-06-15 03:28:00,52.3,51.2,29.88,ENE,64,0.0,0.0,96,0.00,CLR,,0.00,WeatherDisplay:10.37,2013-06-15 07:28:00,
2013-06-15 03:33:00,52.9,52.1,29.88,ENE,64,0.0,0.0,97,0.00,CLR,,0.00,WeatherDisplay:10.37,2013-06-15 07:33:00,
2013-06-15 03:38:00,53.1,52.3,29.88,ENE,64,0.0,0.0,97,0.00,CLR,,0.00,WeatherDisplay:10.37,2013-06-15 07:38:00,
2013-06-15 03:43:00,52.9,52.1,29.88,ENE,64,0.0,0.0,97,0.00,CLR,,0.00,WeatherDisplay:10.37,2013-06-15 07:43:00,
2013-06-15 03:48:00,51.9,50.8,29.88,ENE,64,0.0,0.0,96,0.00,CLR,,0.00,WeatherDisplay:10.37,2013-06-15 07:48:00,
2013-06-15 03:54:00,51.6,50.5,29.88,ENE,64,0.0,0.0,96,0.00,CLR,,0.00,WeatherDisplay:10.37,2013-06-15 07:54:00,
2013-06-15 03:59:00,51.4,50.3,29.88,ENE,64,0.0,0.0,96,0.00,CLR,,0.00,WeatherDisplay:10.37,2013-06-15 07:59:00,
2013-06-15 04:04:00,51.7,50.9,29.88,ENE,64,0.0,0.0,97,0.00,CLR,,0.00,WeatherDisplay:10.37,2013-06-15 08:04:00,
2013-06-15 04:09:00,52.0,51.2,29.88,ENE,64,0.0,0.0,97,0.00,CLR,,0.00,WeatherDisplay:10.37,2013-06-15 08:09:00,
2013-06-15 04:14:00,51.4,50.3,29.88,ENE,64,0.0,0.0,96,0.00,CLR,,0.00,WeatherDisplay:10.37,2013-06-15 08:14:00,
2013-06-15 04:19:00,51.1,50.0,29.88,ENE,64,0.0,0.0,96,0.00,CLR,,0.00,WeatherDisplay:10.37,2013-06-15 08:19:00,
2013-06-15 04:24:00,51.4,50.3,29.88,ENE,64,0.0,0.0,96,0.00,CLR,,0.00,WeatherDisplay:10.37,2013-06-15 08:24:00,
2013-06-15 04:30:00,51.9,51.1,29.88,ENE,64,0.0,0.0,97,0.00,CLR,,0.00,WeatherDisplay:10.37,2013-06-15 08:30:00,
2013-06-15 04:35:00,52.0,51.2,29.89,ENE,64,0.0,0.0,97,0.00,CLR,,0.00,WeatherDisplay:10.37,2013-06-15 08:35:00,
2013-06-15 04:40:00,51.4,50.3,29.88,NE,51,0.1,0.0,96,0.00,CLR,,0.00,WeatherDisplay:10.37,2013-06-15 08:40:00,
2013-06-15 04:45:00,51.3,50.2,29.88,NNE,27,0.0,0.0,96,0.00,CLR,,0.00,WeatherDisplay:10.37,2013-06-15 08:45:00,
2013-06-15 04:50:00,51.9,51.1,29.89,NNE,27,0.0,0.0,97,0.00,CLR,,0.00,WeatherDisplay:10.37,2013-06-15 08:50:00,
2013-06-15 04:55:00,51.7,50.9,29.89,NNE,27,0.0,0.0,97,0.00,CLR,,0.00,WeatherDisplay:10.37,2013-06-15 08:55:00,
2013-06-15 05:00:00,52.0,51.2,29.90,NNE,30,0.0,0.0,97,0.00,CLR,,0.00,WeatherDisplay:10.37,2013-06-15 09:00:00,
2013-06-15 05:06:00,51.7,50.9,29.90,NNE,30,0.0,0.0,97,0.00,CLR,,0.00,WeatherDisplay:10.37,2013-06-15 09:06:00,
2013-06-15 05:11:00,51.6,50.8,29.90,NNE,30,0.0,0.0,97,0.00,CLR,,0.00,WeatherDisplay:10.37,2013-06-15 09:11:00,
2013-06-15 05:16:00,51.4,50.6,29.90,NNE,30,0.0,0.0,97,0.00,CLR,,0.00,WeatherDisplay:10.37,2013-06-15 09:16:00,
2013-06-15 05:21:00,51.3,50.5,29.90,NNE,30,0.0,0.0,97,0.00,CLR,,0.00,WeatherDisplay:10.37,2013-06-15 09:21:00,
2013-06-15 05:26:00,51.1,50.0,29.90,NNE,30,0.0,0.0,96,0.00,CLR,,0.00,WeatherDisplay:10.37,2013-06-15 09:26:00,
2013-06-15 05:31:00,51.7,50.9,29.90,NNE,30,0.0,0.0,97,0.00,CLR,,0.00,WeatherDisplay:10.37,2013-06-15 09:31:00,
2013-06-15 05:36:00,52.3,51.5,29.90,NNE,30,0.0,0.0,97,0.00,CLR,,0.00,WeatherDisplay:10.37,2013-06-15 09:36:00,
2013-06-15 05:42:00,52.3,51.5,29.89,NNE,30,0.0,0.0,97,0.00,CLR,,0.00,WeatherDisplay:10.37,2013-06-15 09:42:00,
2013-06-15 05:47:00,52.8,52.0,29.89,NNE,30,0.0,0.0,97,0.00,CLR,,0.00,WeatherDisplay:10.37,2013-06-15 09:47:00,
2013-06-15 05:52:00,52.6,51.8,29.90,NNE,30,0.0,0.0,97,0.00,CLR,,0.00,WeatherDisplay:10.37,2013-06-15 09:52:00,
2013-06-15 05:57:00,52.2,51.4,29.90,NNE,30,0.0,0.0,97,0.00,CLR,,0.00,WeatherDisplay:10.37,2013-06-15 09:57:00,
2013-06-15 06:03:00,52.0,51.2,29.91,NNE,30,0.0,0.0,97,0.00,CLR,,0.00,WeatherDisplay:10.37,2013-06-15 10:03:00,
2013-06-15 06:08:00,51.9,51.1,29.91,NNE,30,0.0,0.0,97,0.00,CLR,,0.00,WeatherDisplay:10.37,2013-06-15 10:08:00,
2013-06-15 06:13:00,52.0,51.2,29.91,NNE,30,0.0,0.0,97,0.00,CLR,,0.00,WeatherDisplay:10.37,2013-06-15 10:13:00,
2013-06-15 06:18:00,52.0,51.2,29.92,NNE,30,0.0,0.0,97,0.00,CLR,,0.00,WeatherDisplay:10.37,2013-06-15 10:18:00,
2013-06-15 06:23:00,52.2,51.4,29.92,ESE,123,0.0,0.0,97,0.00,CLR,,0.00,WeatherDisplay:10.37,2013-06-15 10:23:00,
2013-06-15 06:28:00,52.6,51.8,29.92,SE,126,0.0,0.0,97,0.01,RA,,0.01,WeatherDisplay:10.37,2013-06-15 10:28:00,
2013-06-15 06:33:00,53.5,52.7,29.92,SE,126,0.0,0.0,97,0.01,RA,,0.01,WeatherDisplay:10.37,2013-06-15 10:33:00,
2013-06-15 06:38:00,54.2,53.4,29.92,SE,126,0.0,0.0,97,0.01,CLR,,0.01,WeatherDisplay:10.37,2013-06-15 10:38:00,
2013-06-15 06:44:00,55.0,54.2,29.92,SE,127,0.0,0.0,97,0.01,CLR,,0.01,WeatherDisplay:10.37,2013-06-15 10:44:00,
2013-06-15 06:49:00,55.4,54.6,29.92,SE,127,0.0,0.0,97,0.01,CLR,,0.01,WeatherDisplay:10.37,2013-06-15 10:49:00,
2013-06-15 06:54:00,55.7,54.9,29.92,SE,127,0.0,0.0,97,0.01,CLR,,0.01,WeatherDisplay:10.37,2013-06-15 10:54:00,
2013-06-15 06:59:00,55.7,54.9,29.92,SE,127,0.0,0.0,97,0.01,CLR,,0.01,WeatherDisplay:10.37,2013-06-15 10:59:00,
2013-06-15 07:04:00,55.6,54.8,29.93,SE,127,0.0,0.0,97,0.01,CLR,,0.01,WeatherDisplay:10.37,2013-06-15 11:04:00,
2013-06-15 07:10:00,55.7,54.9,29.92,SE,127,0.0,0.0,97,0.01,CLR,,0.01,WeatherDisplay:10.37,2013-06-15 11:10:00,
2013-06-15 07:15:00,56.0,55.4,29.92,SE,127,0.0,0.0,98,0.01,CLR,,0.01,WeatherDisplay:10.37,2013-06-15 11:15:00,
2013-06-15 07:20:00,56.5,55.9,29.92,SE,127,0.0,0.0,98,0.01,CLR,,0.01,WeatherDisplay:10.37,2013-06-15 11:20:00,
2013-06-15 07:25:00,56.7,56.1,29.92,SE,127,0.0,0.0,98,0.01,CLR,,0.01,WeatherDisplay:10.37,2013-06-15 11:25:00,
2013-06-15 07:30:00,57.2,56.6,29.92,SE,127,0.0,0.0,98,0.00,CLR,,0.01,WeatherDisplay:10.37,2013-06-15 11:30:00,
2013-06-15 07:36:00,57.5,56.7,29.92,SE,128,0.0,0.0,97,0.00,CLR,,0.01,WeatherDisplay:10.37,2013-06-15 11:36:00,
2013-06-15 07:41:00,57.5,56.7,29.93,SSE,150,0.6,2.3,97,0.00,CLR,,0.01,WeatherDisplay:10.37,2013-06-15 11:41:00,
2013-06-15 07:46:00,57.8,57.0,29.93,SSE,150,0.0,0.0,97,0.00,CLR,,0.01,WeatherDisplay:10.37,2013-06-15 11:46:00,
2013-06-15 07:51:00,58.4,57.6,29.93,SSE,151,0.0,0.0,97,0.00,CLR,,0.01,WeatherDisplay:10.37,2013-06-15 11:51:00,
2013-06-15 07:56:00,58.6,57.8,29.93,SSE,155,0.0,0.0,97,0.00,CLR,,0.01,WeatherDisplay:10.37,2013-06-15 11:56:00,
2013-06-15 08:01:00,58.9,58.1,29.94,South,174,2.2,3.5,97,0.00,CLR,,0.01,WeatherDisplay:10.37,2013-06-15 12:01:00,
2013-06-15 08:07:00,59.2,58.3,29.95,South,178,0.0,0.0,97,0.00,CLR,,0.01,WeatherDisplay:10.37,2013-06-15 12:07:00,
2013-06-15 08:12:00,59.6,58.7,29.95,South,184,0.1,2.0,97,0.00,CLR,,0.01,WeatherDisplay:10.37,2013-06-15 12:12:00,
2013-06-15 08:17:00,60.1,59.2,29.95,SSW,193,2.2,4.6,97,0.00,CLR,,0.01,WeatherDisplay:10.37,2013-06-15 12:17:00,
2013-06-15 08:22:00,60.7,59.6,29.95,SSW,203,0.0,0.0,96,0.00,CLR,,0.01,WeatherDisplay:10.37,2013-06-15 12:22:00,
2013-06-15 08:27:00,61.0,59.9,29.96,SSW,208,0.0,2.3,96,0.00,CLR,,0.01,WeatherDisplay:10.37,2013-06-15 12:27:00,
2013-06-15 08:32:00,61.5,60.3,29.96,SW,236,0.0,0.0,96,0.00,CLR,,0.01,WeatherDisplay:10.37,2013-06-15 12:32:00,
2013-06-15 08:37:00,62.1,60.7,29.96,WSW,239,0.0,0.0,95,0.00,CLR,,0.01,WeatherDisplay:10.37,2013-06-15 12:37:00,
2013-06-15 08:42:00,62.7,60.9,29.96,WSW,239,0.0,0.0,94,0.00,CLR,,0.01,WeatherDisplay:10.37,2013-06-15 12:42:00,
2013-06-15 08:47:00,63.1,60.1,29.96,West,275,2.3,6.9,90,0.00,CLR,,0.01,WeatherDisplay:10.37,2013-06-15 12:47:00,
2013-06-15 08:53:00,63.4,59.8,29.96,West,275,0.8,2.0,88,0.00,CLR,,0.01,WeatherDisplay:10.37,2013-06-15 12:53:00,
2013-06-15 08:58:00,63.7,59.1,29.96,West,271,0.0,0.0,85,0.00,CLR,,0.01,WeatherDisplay:10.37,2013-06-15 12:58:00,
2013-06-15 09:03:00,64.0,58.4,29.97,West,281,0.0,0.0,82,0.00,CLR,,0.01,WeatherDisplay:10.37,2013-06-15 13:03:00,
2013-06-15 09:08:00,64.5,58.2,29.96,NW,319,0.9,5.0,80,0.00,CLR,,0.01,WeatherDisplay:10.37,2013-06-15 13:08:00,
2013-06-15 09:13:00,65.0,57.6,29.96,WNW,294,0.8,4.6,77,0.00,CLR,,0.01,WeatherDisplay:10.37,2013-06-15 13:13:00,
2013-06-15 09:18:00,65.5,58.1,29.96,WNW,289,0.0,0.0,77,0.00,CLR,,0.01,WeatherDisplay:10.37,2013-06-15 13:18:00,
2013-06-15 09:23:00,66.3,57.8,29.96,WNW,288,0.0,0.0,74,0.00,CLR,,0.01,WeatherDisplay:10.37,2013-06-15 13:23:00,
2013-06-15 09:28:00,66.8,57.5,29.96,WNW,294,0.0,0.0,72,0.00,CLR,,0.01,WeatherDisplay:10.37,2013-06-15 13:28:00,
2013-06-15 09:33:00,67.6,57.9,29.96,North,357,1.3,1.3,71,0.00,CLR,,0.01,WeatherDisplay:10.37,2013-06-15 13:33:00,
2013-06-15 09:39:00,67.9,56.5,29.95,WNW,296,1.3,3.5,67,0.00,CLR,,0.01,WeatherDisplay:10.37,2013-06-15 13:39:00,
2013-06-15 09:44:00,68.4,57.0,29.95,NNW,332,0.0,0.0,67,0.00,CLR,,0.01,WeatherDisplay:10.37,2013-06-15 13:44:00,
2013-06-15 09:49:00,69.3,57.9,29.94,West,270,0.8,3.5,67,0.00,CLR,,0.01,WeatherDisplay:10.37,2013-06-15 13:49:00,
2013-06-15 09:54:00,69.8,56.2,29.95,West,271,0.0,0.0,62,0.00,CLR,,0.01,WeatherDisplay:10.37,2013-06-15 13:54:00,
2013-06-15 10:00:00,69.9,55.8,29.94,West,272,0.0,0.0,61,0.00,CLR,,0.01,WeatherDisplay:10.37,2013-06-15 14:00:00,
2013-06-15 10:05:00,70.1,54.2,29.95,NNE,13,0.0,0.0,57,0.00,CLR,,0.01,WeatherDisplay:10.37,2013-06-15 14:05:00,
2013-06-15 10:10:00,70.3,54.3,29.95,North,11,0.0,0.0,57,0.00,CLR,,0.01,WeatherDisplay:10.37,2013-06-15 14:10:00,
2013-06-15 10:15:00,70.8,56.2,29.95,NW,322,1.0,6.0,60,0.00,CLR,,0.01,WeatherDisplay:10.37,2013-06-15 14:15:00,
2013-06-15 10:20:00,70.6,56.0,29.95,WNW,296,1.9,3.5,60,0.00,CLR,,0.01,WeatherDisplay:10.37,2013-06-15 14:20:00,
2013-06-15 10:25:00,70.4,56.3,29.95,NW,326,0.1,3.0,61,0.00,CLR,,0.01,WeatherDisplay:10.37,2013-06-15 14:25:00,
2013-06-15 10:30:00,70.4,54.4,29.95,West,260,2.2,3.5,57,0.00,CLR,,0.01,WeatherDisplay:10.37,2013-06-15 14:30:00,
2013-06-15 10:35:00,71.1,56.0,29.95,West,261,1.6,2.0,59,0.00,CLR,,0.01,WeatherDisplay:10.37,2013-06-15 14:35:00,
2013-06-15 10:41:00,71.5,56.9,29.95,NW,323,0.0,0.0,60,0.00,CLR,,0.01,WeatherDisplay:10.37,2013-06-15 14:41:00,
2013-06-15 10:46:00,72.0,56.4,29.95,NW,325,0.0,0.0,58,0.00,CLR,,0.01,WeatherDisplay:10.37,2013-06-15 14:46:00,
2013-06-15 10:51:00,72.3,56.7,29.95,West,281,0.9,5.0,58,0.00,CLR,,0.01,WeatherDisplay:10.37,2013-06-15 14:51:00,
2013-06-15 10:56:00,72.1,55.5,29.94,WNW,288,2.7,5.8,56,0.00,CLR,,0.01,WeatherDisplay:10.37,2013-06-15 14:56:00,
2013-06-15 11:01:00,72.3,58.1,29.94,NNW,339,1.7,5.0,61,0.00,CLR,,0.01,WeatherDisplay:10.37,2013-06-15 15:01:00,
2013-06-15 11:06:00,72.7,58.0,29.94,NW,306,1.5,5.8,60,0.00,CLR,,0.01,WeatherDisplay:10.37,2013-06-15 15:06:00,
2013-06-15 11:12:00,73.2,58.9,29.94,NW,319,0.1,1.0,61,0.00,CLR,,0.01,WeatherDisplay:10.37,2013-06-15 15:12:00,
2013-06-15 11:17:00,73.3,57.1,29.93,NW,308,1.0,3.5,57,0.00,CLR,,0.01,WeatherDisplay:10.37,2013-06-15 15:17:00,
2013-06-15 11:22:00,73.2,55.6,29.94,NNW,333,1.0,4.6,54,0.00,CLR,,0.01,WeatherDisplay:10.37,2013-06-15 15:22:00,
2013-06-15 11:27:00,73.0,56.9,29.94,NNW,332,0.0,0.0,57,0.00,CLR,,0.01,WeatherDisplay:10.37,2013-06-15 15:27:00,
2013-06-15 11:32:00,73.2,55.0,29.94,NW,311,2.4,5.8,53,0.00,CLR,,0.01,WeatherDisplay:10.37,2013-06-15 15:32:00,
2013-06-15 11:37:00,73.2,57.5,29.94,NW,304,0.0,0.0,58,0.00,CLR,,0.01,WeatherDisplay:10.37,2013-06-15 15:37:00,
2013-06-15 11:42:00,73.0,55.4,29.94,WNW,288,2.3,3.5,54,0.00,CLR,,0.01,WeatherDisplay:10.37,2013-06-15 15:42:00,
2013-06-15 11:47:00,73.2,56.1,29.94,WNW,295,1.3,2.3,55,0.00,CLR,,0.01,WeatherDisplay:10.37,2013-06-15 15:47:00,
2013-06-15 11:52:00,73.9,56.2,29.94,NW,308,0.0,0.0,54,0.00,CLR,,0.01,WeatherDisplay:10.37,2013-06-15 15:52:00,
2013-06-15 11:57:00,73.9,56.7,29.94,West,280,1.6,3.5,55,0.00,CLR,,0.01,WeatherDisplay:10.37,2013-06-15 15:57:00,
2013-06-15 12:02:00,74.0,56.8,29.94,WNW,298,2.1,4.6,55,0.00,CLR,,0.01,WeatherDisplay:10.37,2013-06-15 16:02:00,
2013-06-15 12:07:00,74.2,56.5,29.93,WNW,287,2.3,3.5,54,0.00,CLR,,0.01,WeatherDisplay:10.37,2013-06-15 16:07:00,
2013-06-15 12:12:00,74.2,55.4,29.93,NW,309,1.1,3.5,52,0.00,CLR,,0.01,WeatherDisplay:10.37,2013-06-15 16:12:00,
2013-06-15 12:18:00,74.2,54.9,29.93,WSW,243,0.7,1.2,51,0.00,CLR,,0.01,WeatherDisplay:10.37,2013-06-15 16:18:00,
2013-06-15 12:23:00,74.4,58.2,29.92,NW,325,0.0,1.2,57,0.00,CLR,,0.01,WeatherDisplay:10.37,2013-06-15 16:23:00,
2013-06-15 12:28:00,74.9,55.0,29.92,WSW,256,0.9,2.3,50,0.00,CLR,,0.01,WeatherDisplay:10.37,2013-06-15 16:28:00,
2013-06-15 12:33:00,74.7,54.8,29.92,WNW,301,1.3,5.8,50,0.00,CLR,,0.01,WeatherDisplay:10.37,2013-06-15 16:33:00,
2013-06-15 12:38:00,75.3,56.5,29.92,West,270,1.6,2.3,52,0.00,CLR,,0.01,WeatherDisplay:10.37,2013-06-15 16:38:00,
2013-06-15 12:43:00,75.6,56.2,29.92,WSW,247,2.2,6.0,51,0.00,CLR,,0.01,WeatherDisplay:10.37,2013-06-15 16:43:00,
2013-06-15 12:48:00,75.4,55.5,29.91,WNW,288,3.4,5.8,50,0.00,CLR,,0.01,WeatherDisplay:10.37,2013-06-15 16:48:00,
2013-06-15 12:53:00,75.3,57.5,29.91,SW,222,0.2,1.2,54,0.00,CLR,,0.01,WeatherDisplay:10.37,2013-06-15 16:53:00,
2013-06-15 12:58:00,74.9,55.6,29.92,WNW,294,1.8,12.7,51,0.00,CLR,,0.01,WeatherDisplay:10.37,2013-06-15 16:58:00,
2013-06-15 13:04:00,74.6,55.8,29.92,WNW,299,2.4,10.0,52,0.00,CLR,,0.01,WeatherDisplay:10.37,2013-06-15 17:04:00,
2013-06-15 13:09:00,74.6,54.2,29.91,West,275,0.6,2.3,49,0.00,CLR,,0.01,WeatherDisplay:10.37,2013-06-15 17:09:00,
2013-06-15 13:14:00,75.1,55.2,29.91,SW,229,2.5,5.8,50,0.00,CLR,,0.01,WeatherDisplay:10.37,2013-06-15 17:14:00,
2013-06-15 13:19:00,74.9,53.3,29.92,WSW,246,5.5,11.5,47,0.00,CLR,,0.01,WeatherDisplay:10.37,2013-06-15 17:19:00,
2013-06-15 13:24:00,75.4,56.0,29.92,NW,316,0.8,3.0,51,0.00,CLR,,0.01,WeatherDisplay:10.37,2013-06-15 17:24:00,
2013-06-15 13:29:00,75.3,53.1,29.92,NW,318,4.2,17.3,46,0.00,CLR,,0.01,WeatherDisplay:10.37,2013-06-15 17:29:00,
2013-06-15 13:34:00,75.4,53.2,29.92,NW,320,1.9,12.7,46,0.00,CLR,,0.01,WeatherDisplay:10.37,2013-06-15 17:34:00,
2013-06-15 13:39:00,75.4,54.9,29.92,West,264,0.5,1.2,49,0.00,CLR,,0.01,WeatherDisplay:10.37,2013-06-15 17:39:00,
2013-06-15 13:44:00,76.0,54.3,29.91,NNW,337,6.3,10.0,47,0.00,CLR,,0.01,WeatherDisplay:10.37,2013-06-15 17:44:00,
2013-06-15 13:49:00,76.0,53.7,29.91,WNW,292,1.7,5.8,46,0.00,CLR,,0.01,WeatherDisplay:10.37,2013-06-15 17:49:00,
2013-06-15 13:55:00,76.1,53.2,29.91,WNW,292,3.0,5.8,45,0.00,CLR,,0.01,WeatherDisplay:10.37,2013-06-15 17:55:00,
2013-06-15 14:00:00,76.0,53.7,29.91,WNW,289,2.1,4.6,46,0.00,CLR,,0.01,WeatherDisplay:10.37,2013-06-15 18:00:00,
2013-06-15 14:05:00,75.6,55.1,29.91,WNW,295,1.1,3.5,49,0.00,CLR,,0.01,WeatherDisplay:10.37,2013-06-15 18:05:00,
2013-06-15 14:10:00,75.4,54.3,29.91,West,261,1.4,6.0,48,0.00,CLR,,0.01,WeatherDisplay:10.37,2013-06-15 18:10:00,
2013-06-15 14:16:00,75.6,56.2,29.90,NW,309,8.0,13.8,51,0.00,CLR,,0.01,WeatherDisplay:10.37,2013-06-15 18:16:00,
2013-06-15 14:21:00,75.8,52.3,29.90,WNW,288,1.3,5.8,44,0.00,CLR,,0.01,WeatherDisplay:10.37,2013-06-15 18:21:00,
2013-06-15 14:26:00,75.6,53.4,29.90,West,261,0.5,1.2,46,0.00,CLR,,0.01,WeatherDisplay:10.37,2013-06-15 18:26:00,
2013-06-15 14:31:00,75.8,52.9,29.90,West,265,0.2,4.6,45,0.00,CLR,,0.01,WeatherDisplay:10.37,2013-06-15 18:31:00,
2013-06-15 14:36:00,76.0,51.2,29.90,SW,236,3.3,6.9,42,0.00,CLR,,0.01,WeatherDisplay:10.37,2013-06-15 18:36:00,
2013-06-15 14:41:00,75.6,52.8,29.90,WNW,295,1.3,5.8,45,0.00,CLR,,0.01,WeatherDisplay:10.37,2013-06-15 18:41:00,
2013-06-15 14:46:00,76.0,52.5,29.89,West,261,6.6,10.4,44,0.00,CLR,,0.01,WeatherDisplay:10.37,2013-06-15 18:46:00,
2013-06-15 14:51:00,76.3,54.0,29.90,WNW,287,0.4,3.5,46,0.00,CLR,,0.01,WeatherDisplay:10.37,2013-06-15 18:51:00,
2013-06-15 14:56:00,76.3,51.5,29.90,WNW,294,0.0,2.3,42,0.00,CLR,,0.01,WeatherDisplay:10.37,2013-06-15 18:56:00,
2013-06-15 15:02:00,77.0,52.8,29.89,NW,319,2.0,4.6,43,0.00,CLR,,0.01,WeatherDisplay:10.37,2013-06-15 19:02:00,
2013-06-15 15:07:00,77.0,52.1,29.89,WNW,301,0.8,4.6,42,0.00,CLR,,0.01,WeatherDisplay:10.37,2013-06-15 19:07:00,
2013-06-15 15:12:00,76.5,51.0,29.89,WNW,298,1.3,4.6,41,0.00,CLR,,0.01,WeatherDisplay:10.37,2013-06-15 19:12:00,
2013-06-15 15:17:00,76.5,51.0,29.89,NW,312,1.5,4.6,41,0.00,CLR,,0.01,WeatherDisplay:10.37,2013-06-15 19:17:00,
2013-06-15 15:22:00,76.7,52.5,29.89,WNW,294,0.0,0.0,43,0.00,CLR,,0.01,WeatherDisplay:10.37,2013-06-15 19:22:00,
2013-06-15 15:27:00,76.8,52.6,29.88,WSW,237,0.8,3.5,43,0.00,CLR,,0.01,WeatherDisplay:10.37,2013-06-15 19:27:00,
2013-06-15 15:32:00,77.0,54.0,29.88,NW,304,1.8,5.8,45,0.00,CLR,,0.01,WeatherDisplay:10.37,2013-06-15 19:32:00,
2013-06-15 15:37:00,77.4,53.8,29.88,WNW,288,0.5,0.0,44,0.00,CLR,,0.01,WeatherDisplay:10.37,2013-06-15 19:37:00,
2013-06-15 15:42:00,77.7,52.8,29.88,WNW,282,1.6,9.2,42,0.00,CLR,,0.01,WeatherDisplay:10.37,2013-06-15 19:42:00,
2013-06-15 15:48:00,77.6,55.2,29.88,SSW,208,0.5,2.3,46,0.00,CLR,,0.01,WeatherDisplay:10.37,2013-06-15 19:48:00,
2013-06-15 15:53:00,78.3,52.0,29.88,WNW,295,0.8,5.0,40,0.00,CLR,,0.01,WeatherDisplay:10.37,2013-06-15 19:53:00,
2013-06-15 15:58:00,78.1,55.0,29.87,South,185,0.0,0.0,45,0.00,CLR,,0.01,WeatherDisplay:10.37,2013-06-15 19:58:00,
2013-06-15 16:03:00,77.9,54.8,29.88,NW,312,0.0,0.0,45,0.00,CLR,,0.01,WeatherDisplay:10.37,2013-06-15 20:03:00,
2013-06-15 16:08:00,77.7,52.1,29.88,WNW,289,1.7,5.8,41,0.00,CLR,,0.01,WeatherDisplay:10.37,2013-06-15 20:08:00,
2013-06-15 16:13:00,77.9,52.3,29.88,WSW,241,0.1,6.0,41,0.00,CLR,,0.01,WeatherDisplay:10.37,2013-06-15 20:13:00,
2013-06-15 16:19:00,77.7,54.0,29.88,WNW,288,1.0,2.3,44,0.00,CLR,,0.01,WeatherDisplay:10.37,2013-06-15 20:19:00,
2013-06-15 16:24:00,76.8,53.2,29.88,SSW,209,0.0,0.0,44,0.00,CLR,,0.01,WeatherDisplay:10.37,2013-06-15 20:24:00,
2013-06-15 16:29:00,76.7,54.4,29.88,WNW,285,0.0,0.0,46,0.00,CLR,,0.01,WeatherDisplay:10.37,2013-06-15 20:29:00,
2013-06-15 16:34:00,77.6,53.3,29.88,NW,311,1.2,1.2,43,0.00,CLR,,0.01,WeatherDisplay:10.37,2013-06-15 20:34:00,
2013-06-15 16:39:00,77.9,53.0,29.88,NW,309,2.4,4.6,42,0.00,CLR,,0.01,WeatherDisplay:10.37,2013-06-15 20:39:00,
2013-06-15 16:44:00,77.9,53.6,29.88,West,274,0.9,4.6,43,0.00,CLR,,0.01,WeatherDisplay:10.37,2013-06-15 20:44:00,
2013-06-15 16:50:00,78.3,54.6,29.88,WSW,253,0.0,0.0,44,0.00,CLR,,0.01,WeatherDisplay:10.37,2013-06-15 20:50:00,
2013-06-15 16:55:00,78.3,54.6,29.88,NNW,329,0.2,1.2,44,0.00,CLR,,0.01,WeatherDisplay:10.37,2013-06-15 20:55:00,
2013-06-15 17:00:00,78.1,56.8,29.88,SW,236,0.1,2.0,48,0.00,CLR,,0.01,WeatherDisplay:10.37,2013-06-15 21:00:00,
2013-06-15 17:05:00,77.4,55.0,29.88,NW,318,0.0,2.3,46,0.00,CLR,,0.01,WeatherDisplay:10.37,2013-06-15 21:05:00,
2013-06-15 17:10:00,76.7,55.0,29.88,NW,306,0.0,0.0,47,0.00,CLR,,0.01,WeatherDisplay:10.37,2013-06-15 21:10:00,
2013-06-15 17:15:00,76.0,55.5,29.88,NW,304,0.0,0.0,49,0.00,CLR,,0.01,WeatherDisplay:10.37,2013-06-15 21:15:00,
2013-06-15 17:21:00,76.0,57.1,29.88,North,350,0.0,0.0,52,0.00,CLR,,0.01,WeatherDisplay:10.37,2013-06-15 21:21:00,
2013-06-15 17:26:00,76.7,55.0,29.88,NW,322,0.0,0.0,47,0.00,CLR,,0.01,WeatherDisplay:10.37,2013-06-15 21:26:00,
2013-06-15 17:31:00,76.8,56.2,29.88,NW,312,0.0,0.0,49,0.00,CLR,,0.01,WeatherDisplay:10.37,2013-06-15 21:31:00,
2013-06-15 17:36:00,76.5,55.3,29.88,NNW,335,0.2,2.0,48,0.00,CLR,,0.01,WeatherDisplay:10.37,2013-06-15 21:36:00,
2013-06-15 17:41:00,76.1,55.5,29.88,NW,320,0.0,0.0,49,0.00,CLR,,0.01,WeatherDisplay:10.37,2013-06-15 21:41:00,
2013-06-15 17:46:00,75.8,55.8,29.88,NW,320,0.0,0.0,50,0.00,CLR,,0.01,WeatherDisplay:10.37,2013-06-15 21:46:00,
2013-06-15 17:51:00,76.1,56.1,29.88,NW,322,0.0,0.0,50,0.00,CLR,,0.01,WeatherDisplay:10.37,2013-06-15 21:51:00,
2013-06-15 17:57:00,76.7,55.0,29.88,NNW,332,0.0,0.0,47,0.00,CLR,,0.01,WeatherDisplay:10.37,2013-06-15 21:57:00,
2013-06-15 18:02:00,76.7,55.0,29.88,NNW,330,0.0,0.0,47,0.00,CLR,,0.01,WeatherDisplay:10.37,2013-06-15 22:02:00,
2013-06-15 18:07:00,76.3,55.2,29.88,WNW,299,0.1,1.2,48,0.00,CLR,,0.01,WeatherDisplay:10.37,2013-06-15 22:07:00,
2013-06-15 18:12:00,76.3,57.4,29.88,WNW,299,0.0,0.0,52,0.00,CLR,,0.01,WeatherDisplay:10.37,2013-06-15 22:12:00,
2013-06-15 18:17:00,77.0,56.4,29.88,WNW,299,0.0,0.0,49,0.00,CLR,,0.01,WeatherDisplay:10.37,2013-06-15 22:17:00,
2013-06-15 18:22:00,77.7,55.3,29.88,NW,305,0.0,1.2,46,0.00,CLR,,0.01,WeatherDisplay:10.37,2013-06-15 22:22:00,
2013-06-15 18:27:00,77.9,54.8,29.88,West,265,1.3,6.9,45,0.00,CLR,,0.01,WeatherDisplay:10.37,2013-06-15 22:27:00,
2013-06-15 18:33:00,77.9,54.8,29.88,West,265,1.0,5.8,45,0.00,CLR,,0.01,WeatherDisplay:10.37,2013-06-15 22:33:00,
2013-06-15 18:38:00,76.3,54.0,29.88,NW,306,1.1,4.6,46,0.00,CLR,,0.01,WeatherDisplay:10.37,2013-06-15 22:38:00,
2013-06-15 18:43:00,75.8,54.7,29.88,WNW,296,0.0,0.0,48,0.00,CLR,,0.01,WeatherDisplay:10.37,2013-06-15 22:43:00,
2013-06-15 18:48:00,75.4,54.9,29.88,WNW,295,0.0,0.0,49,0.00,CLR,,0.01,WeatherDisplay:10.37,2013-06-15 22:48:00,
2013-06-15 18:53:00,75.4,54.3,29.88,WNW,289,0.2,2.3,48,0.00,CLR,,0.01,WeatherDisplay:10.37,2013-06-15 22:53:00,
2013-06-15 18:58:00,75.4,55.5,29.88,WSW,258,0.0,0.0,50,0.00,CLR,,0.01,WeatherDisplay:10.37,2013-06-15 22:58:00,
2013-06-15 19:03:00,75.3,55.4,29.88,West,260,0.0,0.0,50,0.00,CLR,,0.01,WeatherDisplay:10.37,2013-06-15 23:03:00,
2013-06-15 19:09:00,74.9,55.6,29.88,West,263,0.0,0.0,51,0.00,CLR,,0.01,WeatherDisplay:10.37,2013-06-15 23:09:00,
2013-06-15 19:14:00,74.4,55.1,29.88,West,268,0.0,0.0,51,0.00,CLR,,0.01,WeatherDisplay:10.37,2013-06-15 23:14:00,
2013-06-15 19:19:00,73.9,55.2,29.88,WNW,292,0.0,2.3,52,0.00,CLR,,0.01,WeatherDisplay:10.37,2013-06-15 23:19:00,
2013-06-15 19:24:00,73.3,55.1,29.88,WNW,288,0.1,1.2,53,0.00,CLR,,0.01,WeatherDisplay:10.37,2013-06-15 23:24:00,
2013-06-15 19:29:00,72.8,55.2,29.88,West,280,0.0,0.0,54,0.00,CLR,,0.01,WeatherDisplay:10.37,2013-06-15 23:29:00,
2013-06-15 19:34:00,72.5,54.9,29.88,WNW,282,0.0,0.0,54,0.00,CLR,,0.01,WeatherDisplay:10.37,2013-06-15 23:34:00,
2013-06-15 19:39:00,72.1,54.5,29.89,WNW,284,0.0,0.0,54,0.00,CLR,,0.01,WeatherDisplay:10.37,2013-06-15 23:39:00,
2013-06-15 19:44:00,71.8,55.3,29.89,West,280,0.0,0.0,56,0.00,CLR,,0.01,WeatherDisplay:10.37,2013-06-15 23:44:00,
2013-06-15 19:50:00,71.5,55.0,29.89,West,280,0.0,0.0,56,0.00,CLR,,0.01,WeatherDisplay:10.37,2013-06-15 23:50:00,
2013-06-15 19:55:00,71.1,54.6,29.89,WNW,282,0.0,0.0,56,0.00,CLR,,0.01,WeatherDisplay:10.37,2013-06-15 23:55:00,
2013-06-15 20:00:00,70.9,54.4,29.89,WNW,284,0.0,0.0,56,0.00,CLR,,0.01,WeatherDisplay:10.37,2013-06-16 00:00:00,
2013-06-15 20:05:00,70.8,54.3,29.89,West,272,0.1,1.0,56,0.00,CLR,,0.01,WeatherDisplay:10.37,2013-06-16 00:05:00,
2013-06-15 20:10:00,70.6,54.6,29.89,West,278,0.0,0.0,57,0.00,CLR,,0.01,WeatherDisplay:10.37,2013-06-16 00:10:00,
2013-06-15 20:16:00,70.4,54.0,29.89,WNW,287,0.0,0.0,56,0.00,CLR,,0.01,WeatherDisplay:10.37,2013-06-16 00:16:00,
2013-06-15 20:21:00,70.3,53.9,29.89,WNW,287,0.0,0.0,56,0.00,CLR,,0.01,WeatherDisplay:10.37,2013-06-16 00:21:00,
2013-06-15 20:26:00,70.1,53.7,29.89,WNW,288,0.0,0.0,56,0.00,CLR,,0.01,WeatherDisplay:10.37,2013-06-16 00:26:00,
2013-06-15 20:31:00,70.1,53.7,29.90,WNW,298,0.0,1.2,56,0.00,CLR,,0.01,WeatherDisplay:10.37,2013-06-16 00:31:00,
2013-06-15 20:36:00,69.9,53.5,29.90,WNW,289,0.0,0.0,56,0.00,CLR,,0.01,WeatherDisplay:10.37,2013-06-16 00:36:00,
2013-06-15 20:41:00,69.9,54.0,29.90,West,277,0.1,4.6,57,0.00,CLR,,0.01,WeatherDisplay:10.37,2013-06-16 00:41:00,
2013-06-15 20:46:00,69.8,53.9,29.90,WNW,295,0.9,4.0,57,0.00,CLR,,0.01,WeatherDisplay:10.37,2013-06-16 00:46:00,
2013-06-15 20:51:00,69.6,53.7,29.90,WNW,282,0.1,1.2,57,0.00,CLR,,0.01,WeatherDisplay:10.37,2013-06-16 00:51:00,
2013-06-15 20:56:00,69.6,53.7,29.90,WNW,288,0.0,0.0,57,0.00,CLR,,0.01,WeatherDisplay:10.37,2013-06-16 00:56:00,
2013-06-15 21:01:00,69.4,54.0,29.90,West,274,0.0,0.0,58,0.00,CLR,,0.01,WeatherDisplay:10.37,2013-06-16 01:01:00,
2013-06-15 21:06:00,69.3,53.9,29.90,West,275,0.0,0.0,58,0.00,CLR,,0.01,WeatherDisplay:10.37,2013-06-16 01:06:00,
2013-06-15 21:12:00,69.1,53.7,29.90,West,278,0.0,0.0,58,0.00,CLR,,0.01,WeatherDisplay:10.37,2013-06-16 01:12:00,
2013-06-15 21:17:00,68.9,53.5,29.90,West,280,0.0,0.0,58,0.00,CLR,,0.01,WeatherDisplay:10.37,2013-06-16 01:17:00,
2013-06-15 21:22:00,68.9,53.5,29.90,WNW,282,0.0,0.0,58,0.00,CLR,,0.01,WeatherDisplay:10.37,2013-06-16 01:22:00,
2013-06-15 21:27:00,68.8,53.9,29.90,WNW,282,0.0,0.0,59,0.00,CLR,,0.01,WeatherDisplay:10.37,2013-06-16 01:27:00,
2013-06-15 21:32:00,68.6,54.2,29.90,WNW,284,0.0,0.0,60,0.00,CLR,,0.01,WeatherDisplay:10.37,2013-06-16 01:32:00,
2013-06-15 21:38:00,68.3,54.3,29.90,WNW,284,0.0,0.0,61,0.00,CLR,,0.01,WeatherDisplay:10.37,2013-06-16 01:38:00,
2013-06-15 21:43:00,68.1,54.6,29.90,WNW,284,0.0,0.0,62,0.00,CLR,,0.01,WeatherDisplay:10.37,2013-06-16 01:43:00,
2013-06-15 21:48:00,67.8,54.3,29.91,WNW,284,0.0,0.0,62,0.00,CLR,,0.01,WeatherDisplay:10.37,2013-06-16 01:48:00,
2013-06-15 21:53:00,67.4,54.4,29.91,WNW,284,0.0,0.0,63,0.00,CLR,,0.01,WeatherDisplay:10.37,2013-06-16 01:53:00,
2013-06-15 21:58:00,67.1,54.5,29.91,WNW,284,0.0,0.0,64,0.00,CLR,,0.01,WeatherDisplay:10.37,2013-06-16 01:58:00,
2013-06-15 22:03:00,66.8,54.7,29.91,WNW,284,0.0,0.0,65,0.00,CLR,,0.01,WeatherDisplay:10.37,2013-06-16 02:03:00,
2013-06-15 22:08:00,66.4,54.7,29.92,WNW,284,0.0,0.0,66,0.00,CLR,,0.01,WeatherDisplay:10.37,2013-06-16 02:08:00,
2013-06-15 22:13:00,66.1,54.8,29.92,WNW,284,0.0,0.0,67,0.00,CLR,,0.01,WeatherDisplay:10.37,2013-06-16 02:13:00,
2013-06-15 22:19:00,65.8,55.3,29.92,WNW,284,0.0,0.0,69,0.00,CLR,,0.01,WeatherDisplay:10.37,2013-06-16 02:19:00,
2013-06-15 22:24:00,65.5,55.5,29.92,WNW,284,0.0,0.0,70,0.00,CLR,,0.01,WeatherDisplay:10.37,2013-06-16 02:24:00,
2013-06-15 22:29:00,65.0,55.0,29.92,WNW,284,0.0,0.0,70,0.00,CLR,,0.01,WeatherDisplay:10.37,2013-06-16 02:29:00,
2013-06-15 22:34:00,64.7,55.1,29.92,WNW,284,0.0,0.0,71,0.00,CLR,,0.01,WeatherDisplay:10.37,2013-06-16 02:34:00,
2013-06-15 22:39:00,64.0,54.8,29.92,WNW,284,0.0,0.0,72,0.00,CLR,,0.01,WeatherDisplay:10.37,2013-06-16 02:39:00,
2013-06-15 22:44:00,63.4,55.0,29.92,WNW,284,0.0,0.0,74,0.00,CLR,,0.01,WeatherDisplay:10.37,2013-06-16 02:44:00,
2013-06-15 22:49:00,62.9,54.9,29.92,WNW,282,0.0,0.0,75,0.00,CLR,,0.01,WeatherDisplay:10.37,2013-06-16 02:49:00,
2013-06-15 22:54:00,62.6,54.9,29.92,West,271,0.0,0.0,76,0.00,CLR,,0.01,WeatherDisplay:10.37,2013-06-16 02:54:00,
2013-06-15 22:59:00,62.7,55.4,29.92,West,271,0.0,0.0,77,0.00,CLR,,0.01,WeatherDisplay:10.37,2013-06-16 02:59:00,
2013-06-15 23:04:00,62.7,55.0,29.92,West,272,0.0,0.0,76,0.00,CLR,,0.01,WeatherDisplay:10.37,2013-06-16 03:04:00,
2013-06-15 23:10:00,62.9,54.5,29.92,West,271,0.0,0.0,74,0.00,CLR,,0.01,WeatherDisplay:10.37,2013-06-16 03:10:00,
2013-06-15 23:15:00,63.1,54.3,29.92,West,271,0.0,0.0,73,0.00,CLR,,0.01,WeatherDisplay:10.37,2013-06-16 03:15:00,
2013-06-15 23:20:00,63.2,54.4,29.93,West,271,0.0,0.0,73,0.00,CLR,,0.01,WeatherDisplay:10.37,2013-06-16 03:20:00,
2013-06-15 23:25:00,62.9,55.2,29.93,West,271,0.0,0.0,76,0.00,CLR,,0.01,WeatherDisplay:10.37,2013-06-16 03:25:00,
2013-06-15 23:30:00,62.6,54.9,29.92,West,271,0.0,0.0,76,0.00,CLR,,0.01,WeatherDisplay:10.37,2013-06-16 03:30:00,
2013-06-15 23:35:00,62.0,54.7,29.93,West,271,0.0,0.0,77,0.00,CLR,,0.01,WeatherDisplay:10.37,2013-06-16 03:35:00,
2013-06-15 23:40:00,61.5,54.9,29.92,West,271,0.0,0.0,79,0.00,CLR,,0.01,WeatherDisplay:10.37,2013-06-16 03:40:00,
2013-06-15 23:45:00,61.2,55.0,29.92,West,271,0.0,0.0,80,0.00,CLR,,0.01,WeatherDisplay:10.37,2013-06-16 03:45:00,
2013-06-15 23:50:00,60.9,55.0,29.93,West,271,0.0,0.0,81,0.00,CLR,,0.01,WeatherDisplay:10.37,2013-06-16 03:50:00,
2013-06-15 23:56:00,60.2,55.0,29.93,West,272,0.0,0.0,83,0.00,CLR,,0.01,WeatherDisplay:10.37,2013-06-16 03:56:00,